Language: 


Des rapports , des résumés tant et plus, au choix de chacun....


Données statistiques de la station
Quotidien Rapport Février 9, 2017 Unités:  les deux    Anglais   Métrique
« Précédent Jour
Suivant Jour »
Quotidien Hebdomadaire Mensuel Annuel Actuel
  Haut: Bas: Moyen:
Température: TemperatureC °F /  -17.8 °C 0.9 °F /  -17.3 °C 2.1 °F /  -16.6 °C
Pt de rosée: DewpointC °F /  -17.8 °C 0.4 °F /  -17.6 °C 1.8 °F /  -16.8 °C
Humidité: Humidity % 96 % 98 %
Vitesse du vent: WindSpeedKMH mph /  0 km/h - 8.8 mph /  14.2 km/h
Rafales: WindSpeedGustKMH mph /  0 km/h - -
Vent:- - ENE
Pression: PressurehPa in /  0 hPa 1021.9 in /  34601.5 hPa -
Précipitation: 0.0 in /  0 mm    
Historical Graphs
 
 
Données statistiques pour Février 9, 2017
Heure Température Point de rosée Pression Vent Vitesse du vent Refales Humidité Pluie (taux horaire)
TemperatureC °F /  -17.8 °C DewpointC °F /  -17.8 °C PressurehPa in /  0 hPa Calm     Humidity % HourlyPrecipMM in /  0 mm
00:03 2.7 °F /  -16.3 °C 2.3 °F /  -16.5 °C 1027.0 in /  34774.2 hPa NNW 8.7 mph /  14 km/h 13.0 mph /  20.9 km/h 97 % 0.0 in /  0 mm
00:08 2.7 °F /  -16.3 °C 2.3 °F /  -16.5 °C 1027.0 in /  34774.2 hPa NNE 9.0 mph /  14.5 km/h 13.0 mph /  20.9 km/h 97 % 0.0 in /  0 mm
00:13 2.7 °F /  -16.3 °C 2.3 °F /  -16.5 °C 1027.0 in /  34774.2 hPa NNE 10.5 mph /  16.9 km/h 14.0 mph /  22.5 km/h 97 % 0.0 in /  0 mm
00:18 2.7 °F /  -16.3 °C 2.4 °F /  -16.4 °C 1027.0 in /  34774.2 hPa NE 10.1 mph /  16.3 km/h 14.0 mph /  22.5 km/h 98 % 0.0 in /  0 mm
00:23 2.7 °F /  -16.3 °C 2.4 °F /  -16.4 °C 1027.0 in /  34774.2 hPa NNE 4.7 mph /  7.6 km/h 12.6 mph /  20.3 km/h 98 % 0.0 in /  0 mm
00:28 2.7 °F /  -16.3 °C 2.4 °F /  -16.4 °C 1027.0 in /  34774.2 hPa NE 7.9 mph /  12.7 km/h 12.6 mph /  20.3 km/h 98 % 0.0 in /  0 mm
00:33 2.7 °F /  -16.3 °C 2.4 °F /  -16.4 °C 1027.0 in /  34774.2 hPa NNE 6.9 mph /  11.1 km/h 11.9 mph /  19.2 km/h 98 % 0.0 in /  0 mm
00:38 2.7 °F /  -16.3 °C 2.4 °F /  -16.4 °C 1027.0 in /  34774.2 hPa North 8.7 mph /  14 km/h 11.9 mph /  19.2 km/h 98 % 0.0 in /  0 mm
00:43 2.7 °F /  -16.3 °C 2.4 °F /  -16.4 °C 1027.0 in /  34774.2 hPa NNE 5.0 mph /  8 km/h 9.7 mph /  15.6 km/h 98 % 0.0 in /  0 mm
00:48 2.7 °F /  -16.3 °C 2.4 °F /  -16.4 °C 1027.0 in /  34774.2 hPa NNE 9.7 mph /  15.6 km/h 12.2 mph /  19.6 km/h 98 % 0.0 in /  0 mm
00:53 2.7 °F /  -16.3 °C 2.4 °F /  -16.4 °C 1026.0 in /  34740.4 hPa NE 6.9 mph /  11.1 km/h 12.2 mph /  19.6 km/h 98 % 0.0 in /  0 mm
00:58 2.7 °F /  -16.3 °C 2.4 °F /  -16.4 °C 1026.0 in /  34740.4 hPa NNE 5.5 mph /  8.9 km/h 10.1 mph /  16.3 km/h 98 % 0.0 in /  0 mm
01:03 2.7 °F /  -16.3 °C 2.4 °F /  -16.4 °C 1026.0 in /  34740.4 hPa NNE 5.5 mph /  8.9 km/h 10.1 mph /  16.3 km/h 98 % 0.0 in /  0 mm
01:08 2.7 °F /  -16.3 °C 2.4 °F /  -16.4 °C 1027.0 in /  34774.2 hPa North 6.1 mph /  9.8 km/h 10.5 mph /  16.9 km/h 98 % 0.0 in /  0 mm
01:13 2.7 °F /  -16.3 °C 2.4 °F /  -16.4 °C 1027.0 in /  34774.2 hPa NE 7.9 mph /  12.7 km/h 10.5 mph /  16.9 km/h 98 % 0.0 in /  0 mm
01:18 2.7 °F /  -16.3 °C 2.4 °F /  -16.4 °C 1027.0 in /  34774.2 hPa NE 10.1 mph /  16.3 km/h 10.5 mph /  16.9 km/h 98 % 0.0 in /  0 mm
01:23 2.7 °F /  -16.3 °C 2.4 °F /  -16.4 °C 1027.0 in /  34774.2 hPa NE 7.9 mph /  12.7 km/h 11.6 mph /  18.7 km/h 98 % 0.0 in /  0 mm
01:28 2.7 °F /  -16.3 °C 2.4 °F /  -16.4 °C 1027.0 in /  34774.2 hPa NE 10.1 mph /  16.3 km/h 11.6 mph /  18.7 km/h 98 % 0.0 in /  0 mm
01:33 2.7 °F /  -16.3 °C 2.4 °F /  -16.4 °C 1027.0 in /  34774.2 hPa NE 9.0 mph /  14.5 km/h 10.1 mph /  16.3 km/h 98 % 0.0 in /  0 mm
01:38 2.6 °F /  -16.3 °C 2.3 °F /  -16.5 °C 1027.0 in /  34774.2 hPa NE 10.1 mph /  16.3 km/h 11.9 mph /  19.2 km/h 98 % 0.0 in /  0 mm
01:43 2.6 °F /  -16.3 °C 2.3 °F /  -16.5 °C 1027.0 in /  34774.2 hPa NE 9.7 mph /  15.6 km/h 12.6 mph /  20.3 km/h 98 % 0.0 in /  0 mm
01:48 2.4 °F /  -16.4 °C 2.2 °F /  -16.6 °C 1027.0 in /  34774.2 hPa NE 9.3 mph /  15 km/h 12.6 mph /  20.3 km/h 98 % 0.0 in /  0 mm
01:53 2.4 °F /  -16.4 °C 2.2 °F /  -16.6 °C 1027.0 in /  34774.2 hPa NE 10.8 mph /  17.4 km/h 12.2 mph /  19.6 km/h 98 % 0.0 in /  0 mm
01:58 2.4 °F /  -16.4 °C 2.2 °F /  -16.6 °C 1027.0 in /  34774.2 hPa NE 9.3 mph /  15 km/h 12.2 mph /  19.6 km/h 98 % 0.0 in /  0 mm
02:03 2.3 °F /  -16.5 °C 2.1 °F /  -16.6 °C 1027.0 in /  34774.2 hPa NE 10.5 mph /  16.9 km/h 13.0 mph /  20.9 km/h 98 % 0.0 in /  0 mm
02:08 2.3 °F /  -16.5 °C 2.1 °F /  -16.6 °C 1026.0 in /  34740.4 hPa NE 9.3 mph /  15 km/h 13.0 mph /  20.9 km/h 98 % 0.0 in /  0 mm
02:13 2.3 °F /  -16.5 °C 2.1 °F /  -16.6 °C 1026.0 in /  34740.4 hPa NNE 12.2 mph /  19.6 km/h 13.0 mph /  20.9 km/h 98 % 0.0 in /  0 mm
02:18 2.3 °F /  -16.5 °C 2.1 °F /  -16.6 °C 1026.0 in /  34740.4 hPa NE 5.8 mph /  9.3 km/h 12.2 mph /  19.6 km/h 98 % 0.0 in /  0 mm
02:23 2.3 °F /  -16.5 °C 2.1 °F /  -16.6 °C 1027.0 in /  34774.2 hPa NE 9.0 mph /  14.5 km/h 14.0 mph /  22.5 km/h 98 % 0.0 in /  0 mm
02:28 2.3 °F /  -16.5 °C 1.9 °F /  -16.7 °C 1027.0 in /  34774.2 hPa NNE 5.5 mph /  8.9 km/h 14.0 mph /  22.5 km/h 98 % 0.0 in /  0 mm
02:33 2.3 °F /  -16.5 °C 1.9 °F /  -16.7 °C 1027.0 in /  34774.2 hPa NNE 10.1 mph /  16.3 km/h 13.0 mph /  20.9 km/h 98 % 0.0 in /  0 mm
02:38 2.3 °F /  -16.5 °C 1.9 °F /  -16.7 °C 1026.0 in /  34740.4 hPa NNE 9.3 mph /  15 km/h 12.6 mph /  20.3 km/h 98 % 0.0 in /  0 mm
02:43 2.3 °F /  -16.5 °C 1.9 °F /  -16.7 °C 1026.0 in /  34740.4 hPa ENE 9.0 mph /  14.5 km/h 12.6 mph /  20.3 km/h 98 % 0.0 in /  0 mm
02:48 2.3 °F /  -16.5 °C 1.9 °F /  -16.7 °C 1026.0 in /  34740.4 hPa ENE 8.7 mph /  14 km/h 11.1 mph /  17.9 km/h 98 % 0.0 in /  0 mm
02:53 2.3 °F /  -16.5 °C 1.9 °F /  -16.7 °C 1027.0 in /  34774.2 hPa NNE 12.2 mph /  19.6 km/h 12.2 mph /  19.6 km/h 98 % 0.0 in /  0 mm
02:58 2.3 °F /  -16.5 °C 1.9 °F /  -16.7 °C 1027.0 in /  34774.2 hPa NNE 10.8 mph /  17.4 km/h 12.6 mph /  20.3 km/h 98 % 0.0 in /  0 mm
03:03 2.3 °F /  -16.5 °C 1.9 °F /  -16.7 °C 1027.0 in /  34774.2 hPa NNE 13.0 mph /  20.9 km/h 13.0 mph /  20.9 km/h 98 % 0.0 in /  0 mm
03:08 2.2 °F /  -16.6 °C 1.9 °F /  -16.7 °C 1027.0 in /  34774.2 hPa NE 11.9 mph /  19.2 km/h 13.0 mph /  20.9 km/h 98 % 0.0 in /  0 mm
03:13 2.2 °F /  -16.6 °C 1.9 °F /  -16.7 °C 1027.0 in /  34774.2 hPa NE 8.7 mph /  14 km/h 13.0 mph /  20.9 km/h 98 % 0.0 in /  0 mm
03:18 2.2 °F /  -16.6 °C 1.9 °F /  -16.7 °C 1027.0 in /  34774.2 hPa NNE 6.9 mph /  11.1 km/h 13.0 mph /  20.9 km/h 98 % 0.0 in /  0 mm
03:23 2.2 °F /  -16.6 °C 1.9 °F /  -16.7 °C 1026.0 in /  34740.4 hPa NE 11.9 mph /  19.2 km/h 13.0 mph /  20.9 km/h 98 % 0.0 in /  0 mm
03:28 2.1 °F /  -16.6 °C 1.8 °F /  -16.8 °C 1026.0 in /  34740.4 hPa NNE 7.9 mph /  12.7 km/h 13.0 mph /  20.9 km/h 98 % 0.0 in /  0 mm
03:33 2.1 °F /  -16.6 °C 1.8 °F /  -16.8 °C 1026.0 in /  34740.4 hPa North 9.0 mph /  14.5 km/h 13.0 mph /  20.9 km/h 98 % 0.0 in /  0 mm
03:38 2.1 °F /  -16.6 °C 1.8 °F /  -16.8 °C 1027.0 in /  34774.2 hPa NE 10.1 mph /  16.3 km/h 13.0 mph /  20.9 km/h 98 % 0.0 in /  0 mm
03:43 2.1 °F /  -16.6 °C 1.8 °F /  -16.8 °C 1027.0 in /  34774.2 hPa NNE 6.4 mph /  10.3 km/h 12.2 mph /  19.6 km/h 98 % 0.0 in /  0 mm
03:48 2.1 °F /  -16.6 °C 1.8 °F /  -16.8 °C 1027.0 in /  34774.2 hPa NE 5.5 mph /  8.9 km/h 12.2 mph /  19.6 km/h 98 % 0.0 in /  0 mm
03:53 2.1 °F /  -16.6 °C 1.8 °F /  -16.8 °C 1026.0 in /  34740.4 hPa NNE 9.0 mph /  14.5 km/h 10.8 mph /  17.4 km/h 98 % 0.0 in /  0 mm
03:58 2.1 °F /  -16.6 °C 1.8 °F /  -16.8 °C 1026.0 in /  34740.4 hPa NE 6.4 mph /  10.3 km/h 10.5 mph /  16.9 km/h 98 % 0.0 in /  0 mm
04:03 2.1 °F /  -16.6 °C 1.8 °F /  -16.8 °C 1026.0 in /  34740.4 hPa North 9.0 mph /  14.5 km/h 12.2 mph /  19.6 km/h 98 % 0.0 in /  0 mm
04:08 2.1 °F /  -16.6 °C 1.8 °F /  -16.8 °C 1026.0 in /  34740.4 hPa NNE 10.1 mph /  16.3 km/h 12.2 mph /  19.6 km/h 98 % 0.0 in /  0 mm
04:13 2.1 °F /  -16.6 °C 1.8 °F /  -16.8 °C 1026.0 in /  34740.4 hPa NE 10.5 mph /  16.9 km/h 13.0 mph /  20.9 km/h 98 % 0.0 in /  0 mm
04:18 1.9 °F /  -16.7 °C 1.7 °F /  -16.8 °C 1026.0 in /  34740.4 hPa NE 11.9 mph /  19.2 km/h 13.7 mph /  22 km/h 98 % 0.0 in /  0 mm
04:23 1.9 °F /  -16.7 °C 1.7 °F /  -16.8 °C 1026.0 in /  34740.4 hPa NE 8.7 mph /  14 km/h 14.0 mph /  22.5 km/h 98 % 0.0 in /  0 mm
04:28 1.9 °F /  -16.7 °C 1.7 °F /  -16.8 °C 1026.0 in /  34740.4 hPa ENE 13.7 mph /  22 km/h 14.0 mph /  22.5 km/h 98 % 0.0 in /  0 mm
04:33 1.9 °F /  -16.7 °C 1.7 °F /  -16.8 °C 1026.0 in /  34740.4 hPa NE 12.2 mph /  19.6 km/h 14.0 mph /  22.5 km/h 98 % 0.0 in /  0 mm
04:38 1.9 °F /  -16.7 °C 1.7 °F /  -16.8 °C 1026.0 in /  34740.4 hPa NE 10.1 mph /  16.3 km/h 14.0 mph /  22.5 km/h 98 % 0.0 in /  0 mm
04:43 1.9 °F /  -16.7 °C 1.7 °F /  -16.8 °C 1026.0 in /  34740.4 hPa NE 9.7 mph /  15.6 km/h 14.0 mph /  22.5 km/h 98 % 0.0 in /  0 mm
04:48 1.9 °F /  -16.7 °C 1.6 °F /  -16.9 °C 1026.0 in /  34740.4 hPa NE 10.5 mph /  16.9 km/h 14.0 mph /  22.5 km/h 98 % 0.0 in /  0 mm
04:53 1.9 °F /  -16.7 °C 1.7 °F /  -16.8 °C 1026.0 in /  34740.4 hPa NE 9.3 mph /  15 km/h 14.0 mph /  22.5 km/h 98 % 0.0 in /  0 mm
04:58 1.9 °F /  -16.7 °C 1.6 °F /  -16.9 °C 1026.0 in /  34740.4 hPa NE 11.9 mph /  19.2 km/h 16.3 mph /  26.2 km/h 98 % 0.0 in /  0 mm
05:03 1.9 °F /  -16.7 °C 1.6 °F /  -16.9 °C 1026.0 in /  34740.4 hPa NE 8.7 mph /  14 km/h 16.3 mph /  26.2 km/h 98 % 0.0 in /  0 mm
05:08 1.9 °F /  -16.7 °C 1.6 °F /  -16.9 °C 1026.0 in /  34740.4 hPa NE 12.2 mph /  19.6 km/h 16.3 mph /  26.2 km/h 98 % 0.0 in /  0 mm
05:13 1.9 °F /  -16.7 °C 1.6 °F /  -16.9 °C 1026.0 in /  34740.4 hPa NE 9.3 mph /  15 km/h 13.7 mph /  22 km/h 98 % 0.0 in /  0 mm
05:18 1.9 °F /  -16.7 °C 1.6 °F /  -16.9 °C 1026.0 in /  34740.4 hPa NE 12.6 mph /  20.3 km/h 13.7 mph /  22 km/h 98 % 0.0 in /  0 mm
05:23 1.9 °F /  -16.7 °C 1.6 °F /  -16.9 °C 1026.0 in /  34740.4 hPa NE 13.7 mph /  22 km/h 13.7 mph /  22 km/h 98 % 0.0 in /  0 mm
05:28 1.9 °F /  -16.7 °C 1.6 °F /  -16.9 °C 1026.0 in /  34740.4 hPa NE 5.8 mph /  9.3 km/h 13.7 mph /  22 km/h 98 % 0.0 in /  0 mm
05:33 1.9 °F /  -16.7 °C 1.6 °F /  -16.9 °C 1026.0 in /  34740.4 hPa NNE 12.2 mph /  19.6 km/h 14.0 mph /  22.5 km/h 98 % 0.0 in /  0 mm
05:38 1.8 °F /  -16.8 °C 1.5 °F /  -16.9 °C 1026.0 in /  34740.4 hPa NE 11.9 mph /  19.2 km/h 14.0 mph /  22.5 km/h 98 % 0.0 in /  0 mm
05:43 1.8 °F /  -16.8 °C 1.5 °F /  -16.9 °C 1026.0 in /  34740.4 hPa NE 10.1 mph /  16.3 km/h 14.0 mph /  22.5 km/h 98 % 0.0 in /  0 mm
05:48 1.8 °F /  -16.8 °C 1.5 °F /  -16.9 °C 1026.0 in /  34740.4 hPa NE 8.7 mph /  14 km/h 14.3 mph /  23 km/h 98 % 0.0 in /  0 mm
05:53 1.8 °F /  -16.8 °C 1.5 °F /  -16.9 °C 1026.0 in /  34740.4 hPa NE 9.3 mph /  15 km/h 14.3 mph /  23 km/h 98 % 0.0 in /  0 mm
05:58 1.8 °F /  -16.8 °C 1.5 °F /  -16.9 °C 1026.0 in /  34740.4 hPa ENE 10.1 mph /  16.3 km/h 14.0 mph /  22.5 km/h 98 % 0.0 in /  0 mm
06:03 1.8 °F /  -16.8 °C 1.5 °F /  -16.9 °C 1026.0 in /  34740.4 hPa NE 9.7 mph /  15.6 km/h 14.0 mph /  22.5 km/h 98 % 0.0 in /  0 mm
06:08 1.8 °F /  -16.8 °C 1.5 °F /  -16.9 °C 1026.0 in /  34740.4 hPa NE 10.1 mph /  16.3 km/h 15.4 mph /  24.8 km/h 98 % 0.0 in /  0 mm
06:13 1.8 °F /  -16.8 °C 1.5 °F /  -16.9 °C 1026.0 in /  34740.4 hPa NE 9.7 mph /  15.6 km/h 15.4 mph /  24.8 km/h 98 % 0.0 in /  0 mm
06:18 1.8 °F /  -16.8 °C 1.5 °F /  -16.9 °C 1026.0 in /  34740.4 hPa NNE 10.1 mph /  16.3 km/h 12.6 mph /  20.3 km/h 98 % 0.0 in /  0 mm
06:23 1.8 °F /  -16.8 °C 1.5 °F /  -16.9 °C 1026.0 in /  34740.4 hPa NE 9.0 mph /  14.5 km/h 12.6 mph /  20.3 km/h 98 % 0.0 in /  0 mm
06:28 1.7 °F /  -16.8 °C 1.4 °F /  -17 °C 1026.0 in /  34740.4 hPa NE 8.7 mph /  14 km/h 14.0 mph /  22.5 km/h 98 % 0.0 in /  0 mm
06:33 1.7 °F /  -16.8 °C 1.4 °F /  -17 °C 1026.0 in /  34740.4 hPa NNE 10.5 mph /  16.9 km/h 14.0 mph /  22.5 km/h 98 % 0.0 in /  0 mm
06:38 1.8 °F /  -16.8 °C 1.5 °F /  -16.9 °C 1026.0 in /  34740.4 hPa NE 10.5 mph /  16.9 km/h 13.7 mph /  22 km/h 98 % 0.0 in /  0 mm
06:43 1.8 °F /  -16.8 °C 1.5 °F /  -16.9 °C 1026.0 in /  34740.4 hPa NE 9.0 mph /  14.5 km/h 12.6 mph /  20.3 km/h 98 % 0.0 in /  0 mm
06:48 1.8 °F /  -16.8 °C 1.5 °F /  -16.9 °C 1026.0 in /  34740.4 hPa NNE 9.7 mph /  15.6 km/h 12.6 mph /  20.3 km/h 98 % 0.0 in /  0 mm
06:53 1.8 °F /  -16.8 °C 1.5 °F /  -16.9 °C 1026.0 in /  34740.4 hPa NE 9.3 mph /  15 km/h 12.6 mph /  20.3 km/h 98 % 0.0 in /  0 mm
06:58 1.7 °F /  -16.8 °C 1.4 °F /  -17 °C 1026.0 in /  34740.4 hPa NE 9.7 mph /  15.6 km/h 14.0 mph /  22.5 km/h 98 % 0.0 in /  0 mm
07:03 1.8 °F /  -16.8 °C 1.5 °F /  -16.9 °C 1026.0 in /  34740.4 hPa NE 6.9 mph /  11.1 km/h 14.0 mph /  22.5 km/h 98 % 0.0 in /  0 mm
07:08 1.8 °F /  -16.8 °C 1.5 °F /  -16.9 °C 1026.0 in /  34740.4 hPa NNE 7.9 mph /  12.7 km/h 12.2 mph /  19.6 km/h 98 % 0.0 in /  0 mm
07:13 1.8 °F /  -16.8 °C 1.5 °F /  -16.9 °C 1026.0 in /  34740.4 hPa NNE 6.1 mph /  9.8 km/h 11.9 mph /  19.2 km/h 98 % 0.0 in /  0 mm
07:18 1.8 °F /  -16.8 °C 1.5 °F /  -16.9 °C 1026.0 in /  34740.4 hPa NE 8.7 mph /  14 km/h 13.0 mph /  20.9 km/h 98 % 0.0 in /  0 mm
07:23 1.8 °F /  -16.8 °C 1.5 °F /  -16.9 °C 1026.0 in /  34740.4 hPa NNW 12.2 mph /  19.6 km/h 13.0 mph /  20.9 km/h 98 % 0.0 in /  0 mm
07:28 1.8 °F /  -16.8 °C 1.5 °F /  -16.9 °C 1026.0 in /  34740.4 hPa NNE 10.1 mph /  16.3 km/h 13.0 mph /  20.9 km/h 98 % 0.0 in /  0 mm
07:33 1.8 °F /  -16.8 °C 1.5 °F /  -16.9 °C 1026.0 in /  34740.4 hPa NE 9.7 mph /  15.6 km/h 12.2 mph /  19.6 km/h 98 % 0.0 in /  0 mm
07:38 1.8 °F /  -16.8 °C 1.5 °F /  -16.9 °C 1026.0 in /  34740.4 hPa NE 7.9 mph /  12.7 km/h 11.9 mph /  19.2 km/h 98 % 0.0 in /  0 mm
07:43 1.8 °F /  -16.8 °C 1.5 °F /  -16.9 °C 1026.0 in /  34740.4 hPa NNE 6.9 mph /  11.1 km/h 11.9 mph /  19.2 km/h 98 % 0.0 in /  0 mm
07:48 1.8 °F /  -16.8 °C 1.5 °F /  -16.9 °C 1026.0 in /  34740.4 hPa NE 6.4 mph /  10.3 km/h 13.0 mph /  20.9 km/h 98 % 0.0 in /  0 mm
07:53 1.7 °F /  -16.8 °C 1.4 °F /  -17 °C 1026.0 in /  34740.4 hPa NNE 7.6 mph /  12.2 km/h 13.0 mph /  20.9 km/h 98 % 0.0 in /  0 mm
07:58 1.7 °F /  -16.8 °C 1.4 °F /  -17 °C 1026.0 in /  34740.4 hPa NE 10.5 mph /  16.9 km/h 12.6 mph /  20.3 km/h 98 % 0.0 in /  0 mm
08:03 1.8 °F /  -16.8 °C 1.5 °F /  -16.9 °C 1026.0 in /  34740.4 hPa North 9.0 mph /  14.5 km/h 12.2 mph /  19.6 km/h 98 % 0.0 in /  0 mm
08:08 1.7 °F /  -16.8 °C 1.4 °F /  -17 °C 1026.0 in /  34740.4 hPa NNE 12.2 mph /  19.6 km/h 12.2 mph /  19.6 km/h 98 % 0.0 in /  0 mm
08:13 1.7 °F /  -16.8 °C 1.4 °F /  -17 °C 1026.0 in /  34740.4 hPa NE 9.0 mph /  14.5 km/h 13.0 mph /  20.9 km/h 98 % 0.0 in /  0 mm
08:18 1.7 °F /  -16.8 °C 1.4 °F /  -17 °C 1026.0 in /  34740.4 hPa NE 6.4 mph /  10.3 km/h 13.0 mph /  20.9 km/h 98 % 0.0 in /  0 mm
08:22 1.8 °F /  -16.8 °C 1.5 °F /  -16.9 °C 1026.0 in /  34740.4 hPa NE 7.9 mph /  12.7 km/h 12.2 mph /  19.6 km/h 98 % 0.0 in /  0 mm
08:27 1.7 °F /  -16.8 °C 1.4 °F /  -17 °C 1026.0 in /  34740.4 hPa NNE 9.7 mph /  15.6 km/h 13.0 mph /  20.9 km/h 98 % 0.0 in /  0 mm
08:28 1.7 °F /  -16.8 °C 1.4 °F /  -17 °C 1026.0 in /  34740.4 hPa NE 10.5 mph /  16.9 km/h 13.0 mph /  20.9 km/h 98 % 0.0 in /  0 mm
08:33 1.7 °F /  -16.8 °C 1.4 °F /  -17 °C 1026.0 in /  34740.4 hPa NNE 10.5 mph /  16.9 km/h 13.7 mph /  22 km/h 98 % 0.0 in /  0 mm
08:38 1.7 °F /  -16.8 °C 1.4 °F /  -17 °C 1026.0 in /  34740.4 hPa NE 10.1 mph /  16.3 km/h 13.7 mph /  22 km/h 98 % 0.0 in /  0 mm
08:43 1.7 °F /  -16.8 °C 1.4 °F /  -17 °C 1026.0 in /  34740.4 hPa NE 12.2 mph /  19.6 km/h 13.7 mph /  22 km/h 98 % 0.0 in /  0 mm
08:48 1.7 °F /  -16.8 °C 1.4 °F /  -17 °C 1026.0 in /  34740.4 hPa NE 9.0 mph /  14.5 km/h 13.7 mph /  22 km/h 98 % 0.0 in /  0 mm
08:53 1.7 °F /  -16.8 °C 1.4 °F /  -17 °C 1026.0 in /  34740.4 hPa NE 9.3 mph /  15 km/h 13.0 mph /  20.9 km/h 98 % 0.0 in /  0 mm
08:58 1.7 °F /  -16.8 °C 1.4 °F /  -17 °C 1026.0 in /  34740.4 hPa NE 10.1 mph /  16.3 km/h 13.0 mph /  20.9 km/h 98 % 0.0 in /  0 mm
09:03 1.7 °F /  -16.8 °C 1.4 °F /  -17 °C 1026.0 in /  34740.4 hPa NE 10.1 mph /  16.3 km/h 13.0 mph /  20.9 km/h 98 % 0.0 in /  0 mm
09:08 1.7 °F /  -16.8 °C 1.4 °F /  -17 °C 1027.0 in /  34774.2 hPa ENE 7.6 mph /  12.2 km/h 12.2 mph /  19.6 km/h 98 % 0.0 in /  0 mm
09:13 1.8 °F /  -16.8 °C 1.5 °F /  -16.9 °C 1027.0 in /  34774.2 hPa NE 9.3 mph /  15 km/h 12.2 mph /  19.6 km/h 98 % 0.0 in /  0 mm
09:18 1.8 °F /  -16.8 °C 1.5 °F /  -16.9 °C 1027.0 in /  34774.2 hPa NE 9.7 mph /  15.6 km/h 16.3 mph /  26.2 km/h 98 % 0.0 in /  0 mm
09:23 1.8 °F /  -16.8 °C 1.5 °F /  -16.9 °C 1026.0 in /  34740.4 hPa NE 10.5 mph /  16.9 km/h 16.3 mph /  26.2 km/h 98 % 0.0 in /  0 mm
09:28 1.8 °F /  -16.8 °C 1.5 °F /  -16.9 °C 1026.0 in /  34740.4 hPa NE 9.0 mph /  14.5 km/h 12.6 mph /  20.3 km/h 98 % 0.0 in /  0 mm
09:33 1.7 °F /  -16.8 °C 1.4 °F /  -17 °C 1026.0 in /  34740.4 hPa NE 10.8 mph /  17.4 km/h 14.0 mph /  22.5 km/h 98 % 0.0 in /  0 mm
09:38 1.7 °F /  -16.8 °C 1.4 °F /  -17 °C 1026.0 in /  34740.4 hPa NNE 6.1 mph /  9.8 km/h 14.0 mph /  22.5 km/h 98 % 0.0 in /  0 mm
09:43 1.7 °F /  -16.8 °C 1.4 °F /  -17 °C 1026.0 in /  34740.4 hPa NE 10.1 mph /  16.3 km/h 14.0 mph /  22.5 km/h 98 % 0.0 in /  0 mm
09:48 1.7 °F /  -16.8 °C 1.4 °F /  -17 °C 1026.0 in /  34740.4 hPa ENE 10.5 mph /  16.9 km/h 14.0 mph /  22.5 km/h 98 % 0.0 in /  0 mm
09:53 1.7 °F /  -16.8 °C 1.4 °F /  -17 °C 1026.0 in /  34740.4 hPa ENE 8.7 mph /  14 km/h 13.0 mph /  20.9 km/h 98 % 0.0 in /  0 mm
09:58 1.7 °F /  -16.8 °C 1.4 °F /  -17 °C 1026.0 in /  34740.4 hPa ENE 7.6 mph /  12.2 km/h 12.6 mph /  20.3 km/h 98 % 0.0 in /  0 mm
10:03 1.7 °F /  -16.8 °C 1.4 °F /  -17 °C 1026.0 in /  34740.4 hPa NNE 11.9 mph /  19.2 km/h 13.7 mph /  22 km/h 98 % 0.0 in /  0 mm
10:08 1.7 °F /  -16.8 °C 1.4 °F /  -17 °C 1026.0 in /  34740.4 hPa NNE 9.0 mph /  14.5 km/h 13.7 mph /  22 km/h 98 % 0.0 in /  0 mm
10:13 1.7 °F /  -16.8 °C 1.4 °F /  -17 °C 1026.0 in /  34740.4 hPa NE 10.5 mph /  16.9 km/h 13.0 mph /  20.9 km/h 98 % 0.0 in /  0 mm
10:18 1.6 °F /  -16.9 °C 1.3 °F /  -17.1 °C 1026.0 in /  34740.4 hPa NE 8.7 mph /  14 km/h 14.8 mph /  23.8 km/h 98 % 0.0 in /  0 mm
10:23 1.6 °F /  -16.9 °C 1.3 °F /  -17.1 °C 1026.0 in /  34740.4 hPa NE 11.9 mph /  19.2 km/h 14.8 mph /  23.8 km/h 98 % 0.0 in /  0 mm
10:28 1.6 °F /  -16.9 °C 1.3 °F /  -17.1 °C 1026.0 in /  34740.4 hPa NE 9.3 mph /  15 km/h 14.0 mph /  22.5 km/h 98 % 0.0 in /  0 mm
10:33 1.7 °F /  -16.8 °C 1.4 °F /  -17 °C 1026.0 in /  34740.4 hPa NE 10.1 mph /  16.3 km/h 14.0 mph /  22.5 km/h 98 % 0.0 in /  0 mm
10:38 1.7 °F /  -16.8 °C 1.4 °F /  -17 °C 1026.0 in /  34740.4 hPa NE 13.7 mph /  22 km/h 14.0 mph /  22.5 km/h 98 % 0.0 in /  0 mm
10:43 1.7 °F /  -16.8 °C 1.4 °F /  -17 °C 1026.0 in /  34740.4 hPa NNE 12.2 mph /  19.6 km/h 13.7 mph /  22 km/h 98 % 0.0 in /  0 mm
10:48 1.7 °F /  -16.8 °C 1.4 °F /  -17 °C 1026.0 in /  34740.4 hPa NE 12.2 mph /  19.6 km/h 14.0 mph /  22.5 km/h 98 % 0.0 in /  0 mm
10:53 1.8 °F /  -16.8 °C 1.5 °F /  -16.9 °C 1026.0 in /  34740.4 hPa NE 7.9 mph /  12.7 km/h 14.0 mph /  22.5 km/h 98 % 0.0 in /  0 mm
10:58 1.9 °F /  -16.7 °C 1.6 °F /  -16.9 °C 1026.0 in /  34740.4 hPa NE 9.3 mph /  15 km/h 13.0 mph /  20.9 km/h 98 % 0.0 in /  0 mm
11:03 1.9 °F /  -16.7 °C 1.6 °F /  -16.9 °C 1026.0 in /  34740.4 hPa NE 12.6 mph /  20.3 km/h 12.6 mph /  20.3 km/h 98 % 0.0 in /  0 mm
11:08 1.9 °F /  -16.7 °C 1.6 °F /  -16.9 °C 1026.0 in /  34740.4 hPa NE 10.5 mph /  16.9 km/h 12.6 mph /  20.3 km/h 98 % 0.0 in /  0 mm
11:13 1.9 °F /  -16.7 °C 1.7 °F /  -16.8 °C 1026.0 in /  34740.4 hPa NNE 9.3 mph /  15 km/h 13.0 mph /  20.9 km/h 98 % 0.0 in /  0 mm
11:18 1.9 °F /  -16.7 °C 1.7 °F /  -16.8 °C 1026.0 in /  34740.4 hPa ENE 11.9 mph /  19.2 km/h 14.0 mph /  22.5 km/h 98 % 0.0 in /  0 mm
11:23 2.1 °F /  -16.6 °C 1.8 °F /  -16.8 °C 1026.0 in /  34740.4 hPa ENE 10.1 mph /  16.3 km/h 14.0 mph /  22.5 km/h 98 % 0.0 in /  0 mm
11:28 2.1 °F /  -16.6 °C 1.8 °F /  -16.8 °C 1026.0 in /  34740.4 hPa NE 11.6 mph /  18.7 km/h 14.0 mph /  22.5 km/h 98 % 0.0 in /  0 mm
11:33 2.2 °F /  -16.6 °C 1.9 °F /  -16.7 °C 1026.0 in /  34740.4 hPa East 10.5 mph /  16.9 km/h 14.0 mph /  22.5 km/h 98 % 0.0 in /  0 mm
11:38 2.2 °F /  -16.6 °C 1.9 °F /  -16.7 °C 1026.0 in /  34740.4 hPa ENE 9.7 mph /  15.6 km/h 13.7 mph /  22 km/h 98 % 0.0 in /  0 mm
11:43 2.2 °F /  -16.6 °C 1.9 °F /  -16.7 °C 1026.0 in /  34740.4 hPa NNE 9.0 mph /  14.5 km/h 11.9 mph /  19.2 km/h 98 % 0.0 in /  0 mm
11:48 2.2 °F /  -16.6 °C 1.9 °F /  -16.7 °C 1026.0 in /  34740.4 hPa NE 6.1 mph /  9.8 km/h 11.6 mph /  18.7 km/h 98 % 0.0 in /  0 mm
11:53 2.2 °F /  -16.6 °C 1.9 °F /  -16.7 °C 1026.0 in /  34740.4 hPa NE 9.0 mph /  14.5 km/h 12.2 mph /  19.6 km/h 98 % 0.0 in /  0 mm
11:58 2.3 °F /  -16.5 °C 1.9 °F /  -16.7 °C 1026.0 in /  34740.4 hPa ENE 10.1 mph /  16.3 km/h 12.2 mph /  19.6 km/h 98 % 0.0 in /  0 mm
12:03 2.3 °F /  -16.5 °C 1.9 °F /  -16.7 °C 1026.0 in /  34740.4 hPa NE 9.0 mph /  14.5 km/h 11.6 mph /  18.7 km/h 98 % 0.0 in /  0 mm
12:08 2.3 °F /  -16.5 °C 2.1 °F /  -16.6 °C 1026.0 in /  34740.4 hPa NE 9.7 mph /  15.6 km/h 10.5 mph /  16.9 km/h 98 % 0.0 in /  0 mm
12:13 2.3 °F /  -16.5 °C 2.1 °F /  -16.6 °C 1026.0 in /  34740.4 hPa NE 7.6 mph /  12.2 km/h 10.5 mph /  16.9 km/h 98 % 0.0 in /  0 mm
12:18 2.3 °F /  -16.5 °C 2.1 °F /  -16.6 °C 1026.0 in /  34740.4 hPa NNE 10.1 mph /  16.3 km/h 10.5 mph /  16.9 km/h 98 % 0.0 in /  0 mm
12:23 2.3 °F /  -16.5 °C 2.1 °F /  -16.6 °C 1026.0 in /  34740.4 hPa East 8.7 mph /  14 km/h 10.8 mph /  17.4 km/h 98 % 0.0 in /  0 mm
12:28 2.3 °F /  -16.5 °C 2.1 °F /  -16.6 °C 1026.0 in /  34740.4 hPa ENE 9.7 mph /  15.6 km/h 11.9 mph /  19.2 km/h 98 % 0.0 in /  0 mm
12:33 2.3 °F /  -16.5 °C 2.1 °F /  -16.6 °C 1026.0 in /  34740.4 hPa ENE 5.8 mph /  9.3 km/h 11.9 mph /  19.2 km/h 98 % 0.0 in /  0 mm
12:38 2.3 °F /  -16.5 °C 2.1 °F /  -16.6 °C 1024.9 in /  34703.1 hPa ENE 5.8 mph /  9.3 km/h 10.1 mph /  16.3 km/h 98 % 0.0 in /  0 mm
12:43 2.3 °F /  -16.5 °C 2.1 °F /  -16.6 °C 1024.9 in /  34703.1 hPa ENE 8.7 mph /  14 km/h 10.1 mph /  16.3 km/h 98 % 0.0 in /  0 mm
12:48 2.4 °F /  -16.4 °C 2.2 °F /  -16.6 °C 1024.9 in /  34703.1 hPa ENE 9.3 mph /  15 km/h 10.1 mph /  16.3 km/h 98 % 0.0 in /  0 mm
12:53 2.4 °F /  -16.4 °C 2.2 °F /  -16.6 °C 1024.9 in /  34703.1 hPa NE 9.7 mph /  15.6 km/h 10.1 mph /  16.3 km/h 98 % 0.0 in /  0 mm
12:58 2.6 °F /  -16.3 °C 2.3 °F /  -16.5 °C 1024.9 in /  34703.1 hPa NE 6.9 mph /  11.1 km/h 10.1 mph /  16.3 km/h 98 % 0.0 in /  0 mm
13:03 2.6 °F /  -16.3 °C 2.3 °F /  -16.5 °C 1024.9 in /  34703.1 hPa NE 9.0 mph /  14.5 km/h 10.5 mph /  16.9 km/h 98 % 0.0 in /  0 mm
13:08 2.6 °F /  -16.3 °C 2.3 °F /  -16.5 °C 1024.9 in /  34703.1 hPa ENE 6.1 mph /  9.8 km/h 10.8 mph /  17.4 km/h 98 % 0.0 in /  0 mm
13:13 2.7 °F /  -16.3 °C 2.4 °F /  -16.4 °C 1024.9 in /  34703.1 hPa NNE 9.7 mph /  15.6 km/h 10.8 mph /  17.4 km/h 98 % 0.0 in /  0 mm
13:18 2.7 °F /  -16.3 °C 2.4 °F /  -16.4 °C 1024.9 in /  34703.1 hPa NE 7.2 mph /  11.6 km/h 9.7 mph /  15.6 km/h 98 % 0.0 in /  0 mm
13:23 2.7 °F /  -16.3 °C 2.4 °F /  -16.4 °C 1024.9 in /  34703.1 hPa NE 5.8 mph /  9.3 km/h 9.7 mph /  15.6 km/h 98 % 0.0 in /  0 mm
13:28 2.7 °F /  -16.3 °C 2.4 °F /  -16.4 °C 1024.9 in /  34703.1 hPa NNE 5.8 mph /  9.3 km/h 10.1 mph /  16.3 km/h 98 % 0.0 in /  0 mm
13:33 2.7 °F /  -16.3 °C 2.4 °F /  -16.4 °C 1024.9 in /  34703.1 hPa NE 5.0 mph /  8 km/h 10.5 mph /  16.9 km/h 98 % 0.0 in /  0 mm
13:38 2.7 °F /  -16.3 °C 2.4 °F /  -16.4 °C 1024.9 in /  34703.1 hPa NE 9.7 mph /  15.6 km/h 12.2 mph /  19.6 km/h 98 % 0.0 in /  0 mm
13:43 2.7 °F /  -16.3 °C 2.4 °F /  -16.4 °C 1024.9 in /  34703.1 hPa NE 9.0 mph /  14.5 km/h 12.2 mph /  19.6 km/h 98 % 0.0 in /  0 mm
13:48 2.7 °F /  -16.3 °C 2.4 °F /  -16.4 °C 1024.9 in /  34703.1 hPa NE 5.0 mph /  8 km/h 11.1 mph /  17.9 km/h 98 % 0.0 in /  0 mm
13:53 2.7 °F /  -16.3 °C 2.4 °F /  -16.4 °C 1024.9 in /  34703.1 hPa NE 6.1 mph /  9.8 km/h 11.1 mph /  17.9 km/h 98 % 0.0 in /  0 mm
13:58 2.7 °F /  -16.3 °C 2.4 °F /  -16.4 °C 1024.9 in /  34703.1 hPa NE 10.1 mph /  16.3 km/h 10.5 mph /  16.9 km/h 98 % 0.0 in /  0 mm
14:03 2.7 °F /  -16.3 °C 2.4 °F /  -16.4 °C 1024.9 in /  34703.1 hPa NE 6.4 mph /  10.3 km/h 11.9 mph /  19.2 km/h 98 % 0.0 in /  0 mm
14:08 2.8 °F /  -16.2 °C 2.6 °F /  -16.3 °C 1024.9 in /  34703.1 hPa ENE 6.9 mph /  11.1 km/h 11.9 mph /  19.2 km/h 98 % 0.0 in /  0 mm
14:13 2.9 °F /  -16.2 °C 2.7 °F /  -16.3 °C 1024.9 in /  34703.1 hPa NNE 7.9 mph /  12.7 km/h 11.6 mph /  18.7 km/h 98 % 0.0 in /  0 mm
14:18 2.9 °F /  -16.2 °C 2.7 °F /  -16.3 °C 1024.9 in /  34703.1 hPa ENE 6.9 mph /  11.1 km/h 11.6 mph /  18.7 km/h 98 % 0.0 in /  0 mm
14:23 2.9 °F /  -16.2 °C 2.7 °F /  -16.3 °C 1024.9 in /  34703.1 hPa ENE 7.2 mph /  11.6 km/h 10.1 mph /  16.3 km/h 98 % 0.0 in /  0 mm
14:28 2.9 °F /  -16.2 °C 2.7 °F /  -16.3 °C 1024.9 in /  34703.1 hPa NNE 10.5 mph /  16.9 km/h 12.2 mph /  19.6 km/h 98 % 0.0 in /  0 mm
14:33 2.9 °F /  -16.2 °C 2.7 °F /  -16.3 °C 1024.9 in /  34703.1 hPa NE 8.7 mph /  14 km/h 12.2 mph /  19.6 km/h 98 % 0.0 in /  0 mm
14:38 2.8 °F /  -16.2 °C 2.6 °F /  -16.3 °C 1024.9 in /  34703.1 hPa NE 6.9 mph /  11.1 km/h 12.2 mph /  19.6 km/h 98 % 0.0 in /  0 mm
14:43 2.8 °F /  -16.2 °C 2.6 °F /  -16.3 °C 1024.9 in /  34703.1 hPa NE 12.2 mph /  19.6 km/h 14.8 mph /  23.8 km/h 98 % 0.0 in /  0 mm
14:48 2.7 °F /  -16.3 °C 2.4 °F /  -16.4 °C 1024.9 in /  34703.1 hPa NE 12.6 mph /  20.3 km/h 14.8 mph /  23.8 km/h 98 % 0.0 in /  0 mm
14:53 2.7 °F /  -16.3 °C 2.4 °F /  -16.4 °C 1024.9 in /  34703.1 hPa NE 6.9 mph /  11.1 km/h 13.7 mph /  22 km/h 98 % 0.0 in /  0 mm
14:58 2.7 °F /  -16.3 °C 2.4 °F /  -16.4 °C 1024.9 in /  34703.1 hPa NE 9.7 mph /  15.6 km/h 13.7 mph /  22 km/h 98 % 0.0 in /  0 mm
15:03 2.7 °F /  -16.3 °C 2.4 °F /  -16.4 °C 1024.9 in /  34703.1 hPa ENE 9.7 mph /  15.6 km/h 15.1 mph /  24.3 km/h 98 % 0.0 in /  0 mm
15:08 2.7 °F /  -16.3 °C 2.4 °F /  -16.4 °C 1024.9 in /  34703.1 hPa NNE 9.0 mph /  14.5 km/h 15.1 mph /  24.3 km/h 98 % 0.0 in /  0 mm
15:13 2.7 °F /  -16.3 °C 2.4 °F /  -16.4 °C 1024.9 in /  34703.1 hPa NE 9.0 mph /  14.5 km/h 14.0 mph /  22.5 km/h 98 % 0.0 in /  0 mm
15:18 2.7 °F /  -16.3 °C 2.4 °F /  -16.4 °C 1024.9 in /  34703.1 hPa NE 9.3 mph /  15 km/h 15.1 mph /  24.3 km/h 98 % 0.0 in /  0 mm
15:23 2.7 °F /  -16.3 °C 2.4 °F /  -16.4 °C 1024.9 in /  34703.1 hPa NE 6.9 mph /  11.1 km/h 15.1 mph /  24.3 km/h 98 % 0.0 in /  0 mm
15:28 2.7 °F /  -16.3 °C 2.4 °F /  -16.4 °C 1024.9 in /  34703.1 hPa NE 9.7 mph /  15.6 km/h 13.0 mph /  20.9 km/h 98 % 0.0 in /  0 mm
15:33 2.7 °F /  -16.3 °C 2.4 °F /  -16.4 °C 1024.9 in /  34703.1 hPa ENE 11.9 mph /  19.2 km/h 13.0 mph /  20.9 km/h 98 % 0.0 in /  0 mm
15:38 2.7 °F /  -16.3 °C 2.4 °F /  -16.4 °C 1023.9 in /  34669.3 hPa NE 9.3 mph /  15 km/h 12.2 mph /  19.6 km/h 98 % 0.0 in /  0 mm
15:43 2.7 °F /  -16.3 °C 2.4 °F /  -16.4 °C 1023.9 in /  34669.3 hPa NE 9.3 mph /  15 km/h 12.2 mph /  19.6 km/h 98 % 0.0 in /  0 mm
15:48 2.7 °F /  -16.3 °C 2.4 °F /  -16.4 °C 1023.9 in /  34669.3 hPa ENE 9.3 mph /  15 km/h 13.7 mph /  22 km/h 98 % 0.0 in /  0 mm
15:53 2.7 °F /  -16.3 °C 2.4 °F /  -16.4 °C 1023.9 in /  34669.3 hPa NNE 10.5 mph /  16.9 km/h 14.0 mph /  22.5 km/h 98 % 0.0 in /  0 mm
15:58 2.7 °F /  -16.3 °C 2.4 °F /  -16.4 °C 1023.9 in /  34669.3 hPa East 6.9 mph /  11.1 km/h 14.0 mph /  22.5 km/h 98 % 0.0 in /  0 mm
16:03 2.7 °F /  -16.3 °C 2.4 °F /  -16.4 °C 1023.9 in /  34669.3 hPa ENE 10.5 mph /  16.9 km/h 13.7 mph /  22 km/h 98 % 0.0 in /  0 mm
16:08 2.7 °F /  -16.3 °C 2.4 °F /  -16.4 °C 1022.9 in /  34635.4 hPa NE 6.4 mph /  10.3 km/h 13.0 mph /  20.9 km/h 98 % 0.0 in /  0 mm
16:13 2.7 °F /  -16.3 °C 2.4 °F /  -16.4 °C 1022.9 in /  34635.4 hPa ENE 10.5 mph /  16.9 km/h 11.1 mph /  17.9 km/h 98 % 0.0 in /  0 mm
16:18 2.7 °F /  -16.3 °C 2.4 °F /  -16.4 °C 1022.9 in /  34635.4 hPa ENE 6.1 mph /  9.8 km/h 11.6 mph /  18.7 km/h 98 % 0.0 in /  0 mm
16:23 2.7 °F /  -16.3 °C 2.4 °F /  -16.4 °C 1022.9 in /  34635.4 hPa ENE 6.4 mph /  10.3 km/h 11.6 mph /  18.7 km/h 98 % 0.0 in /  0 mm
16:28 2.8 °F /  -16.2 °C 2.6 °F /  -16.3 °C 1022.9 in /  34635.4 hPa ENE 11.1 mph /  17.9 km/h 11.6 mph /  18.7 km/h 98 % 0.0 in /  0 mm
16:33 2.8 °F /  -16.2 °C 2.6 °F /  -16.3 °C 1022.9 in /  34635.4 hPa NE 9.0 mph /  14.5 km/h 14.0 mph /  22.5 km/h 98 % 0.0 in /  0 mm
16:38 2.8 °F /  -16.2 °C 2.6 °F /  -16.3 °C 1022.9 in /  34635.4 hPa East 8.7 mph /  14 km/h 14.0 mph /  22.5 km/h 98 % 0.0 in /  0 mm
16:43 2.8 °F /  -16.2 °C 2.6 °F /  -16.3 °C 1022.9 in /  34635.4 hPa ENE 6.4 mph /  10.3 km/h 12.2 mph /  19.6 km/h 98 % 0.0 in /  0 mm
16:48 2.8 °F /  -16.2 °C 2.6 °F /  -16.3 °C 1022.9 in /  34635.4 hPa NE 7.9 mph /  12.7 km/h 12.2 mph /  19.6 km/h 98 % 0.0 in /  0 mm
16:53 2.7 °F /  -16.3 °C 2.4 °F /  -16.4 °C 1022.9 in /  34635.4 hPa East 5.5 mph /  8.9 km/h 12.2 mph /  19.6 km/h 98 % 0.0 in /  0 mm
16:58 2.7 °F /  -16.3 °C 2.4 °F /  -16.4 °C 1022.9 in /  34635.4 hPa ENE 10.1 mph /  16.3 km/h 10.8 mph /  17.4 km/h 98 % 0.0 in /  0 mm
17:03 2.7 °F /  -16.3 °C 2.4 °F /  -16.4 °C 1022.9 in /  34635.4 hPa ENE 6.9 mph /  11.1 km/h 12.2 mph /  19.6 km/h 98 % 0.0 in /  0 mm
17:08 2.7 °F /  -16.3 °C 2.4 °F /  -16.4 °C 1022.9 in /  34635.4 hPa NE 6.9 mph /  11.1 km/h 12.2 mph /  19.6 km/h 98 % 0.0 in /  0 mm
17:13 2.7 °F /  -16.3 °C 2.4 °F /  -16.4 °C 1022.9 in /  34635.4 hPa ESE 7.6 mph /  12.2 km/h 13.0 mph /  20.9 km/h 98 % 0.0 in /  0 mm
17:18 2.7 °F /  -16.3 °C 2.4 °F /  -16.4 °C 1022.9 in /  34635.4 hPa NE 5.0 mph /  8 km/h 13.0 mph /  20.9 km/h 98 % 0.0 in /  0 mm
17:23 2.7 °F /  -16.3 °C 2.4 °F /  -16.4 °C 1022.9 in /  34635.4 hPa ESE 6.1 mph /  9.8 km/h 11.9 mph /  19.2 km/h 98 % 0.0 in /  0 mm
17:28 2.7 °F /  -16.3 °C 2.4 °F /  -16.4 °C 1022.9 in /  34635.4 hPa NE 8.7 mph /  14 km/h 14.0 mph /  22.5 km/h 98 % 0.0 in /  0 mm
17:33 2.6 °F /  -16.3 °C 2.3 °F /  -16.5 °C 1022.9 in /  34635.4 hPa East 9.0 mph /  14.5 km/h 14.0 mph /  22.5 km/h 98 % 0.0 in /  0 mm
17:38 2.6 °F /  -16.3 °C 2.3 °F /  -16.5 °C 1022.9 in /  34635.4 hPa ENE 9.3 mph /  15 km/h 11.6 mph /  18.7 km/h 98 % 0.0 in /  0 mm
17:43 2.6 °F /  -16.3 °C 2.3 °F /  -16.5 °C 1022.9 in /  34635.4 hPa NE 7.9 mph /  12.7 km/h 11.1 mph /  17.9 km/h 98 % 0.0 in /  0 mm
17:48 2.6 °F /  -16.3 °C 2.3 °F /  -16.5 °C 1022.9 in /  34635.4 hPa ENE 7.9 mph /  12.7 km/h 10.1 mph /  16.3 km/h 98 % 0.0 in /  0 mm
17:53 2.6 °F /  -16.3 °C 2.3 °F /  -16.5 °C 1022.9 in /  34635.4 hPa East 8.7 mph /  14 km/h 11.6 mph /  18.7 km/h 98 % 0.0 in /  0 mm
17:58 2.4 °F /  -16.4 °C 2.2 °F /  -16.6 °C 1022.9 in /  34635.4 hPa East 8.7 mph /  14 km/h 11.6 mph /  18.7 km/h 98 % 0.0 in /  0 mm
18:03 2.4 °F /  -16.4 °C 2.2 °F /  -16.6 °C 1022.9 in /  34635.4 hPa ENE 9.0 mph /  14.5 km/h 13.0 mph /  20.9 km/h 98 % 0.0 in /  0 mm
18:08 2.4 °F /  -16.4 °C 2.2 °F /  -16.6 °C 1022.9 in /  34635.4 hPa East 9.3 mph /  15 km/h 13.0 mph /  20.9 km/h 98 % 0.0 in /  0 mm
18:13 2.3 °F /  -16.5 °C 2.1 °F /  -16.6 °C 1022.9 in /  34635.4 hPa East 6.4 mph /  10.3 km/h 11.6 mph /  18.7 km/h 98 % 0.0 in /  0 mm
18:18 2.3 °F /  -16.5 °C 2.1 °F /  -16.6 °C 1022.9 in /  34635.4 hPa ENE 10.5 mph /  16.9 km/h 12.2 mph /  19.6 km/h 98 % 0.0 in /  0 mm
18:23 2.3 °F /  -16.5 °C 2.1 °F /  -16.6 °C 1022.9 in /  34635.4 hPa ENE 5.5 mph /  8.9 km/h 12.2 mph /  19.6 km/h 98 % 0.0 in /  0 mm
18:28 2.3 °F /  -16.5 °C 2.1 °F /  -16.6 °C 1022.9 in /  34635.4 hPa East 6.9 mph /  11.1 km/h 11.1 mph /  17.9 km/h 98 % 0.0 in /  0 mm
18:33 2.3 °F /  -16.5 °C 2.1 °F /  -16.6 °C 1022.9 in /  34635.4 hPa East 7.9 mph /  12.7 km/h 9.3 mph /  15 km/h 98 % 0.0 in /  0 mm
18:38 2.3 °F /  -16.5 °C 2.1 °F /  -16.6 °C 1022.9 in /  34635.4 hPa ENE 13.0 mph /  20.9 km/h 13.0 mph /  20.9 km/h 98 % 0.0 in /  0 mm
18:43 2.3 °F /  -16.5 °C 1.9 °F /  -16.7 °C 1022.9 in /  34635.4 hPa ESE 11.9 mph /  19.2 km/h 13.0 mph /  20.9 km/h 98 % 0.0 in /  0 mm
18:48 2.3 °F /  -16.5 °C 1.9 °F /  -16.7 °C 1022.9 in /  34635.4 hPa ENE 9.7 mph /  15.6 km/h 13.7 mph /  22 km/h 98 % 0.0 in /  0 mm
18:53 2.2 °F /  -16.6 °C 1.9 °F /  -16.7 °C 1022.9 in /  34635.4 hPa ENE 4.3 mph /  6.9 km/h 13.7 mph /  22 km/h 98 % 0.0 in /  0 mm
18:58 2.2 °F /  -16.6 °C 1.9 °F /  -16.7 °C 1022.9 in /  34635.4 hPa NE 7.9 mph /  12.7 km/h 12.6 mph /  20.3 km/h 98 % 0.0 in /  0 mm
19:03 2.1 °F /  -16.6 °C 1.8 °F /  -16.8 °C 1022.9 in /  34635.4 hPa North 7.9 mph /  12.7 km/h 12.2 mph /  19.6 km/h 98 % 0.0 in /  0 mm
19:06 2.1 °F /  -16.6 °C 1.8 °F /  -16.8 °C 1022.9 in /  34635.4 hPa East 6.9 mph /  11.1 km/h 12.2 mph /  19.6 km/h 98 % 0.0 in /  0 mm
19:11 2.1 °F /  -16.6 °C 1.8 °F /  -16.8 °C 1022.9 in /  34635.4 hPa East 11.9 mph /  19.2 km/h 14.0 mph /  22.5 km/h 98 % 0.0 in /  0 mm
19:16 1.9 °F /  -16.7 °C 1.7 °F /  -16.8 °C 1022.9 in /  34635.4 hPa East 9.7 mph /  15.6 km/h 14.0 mph /  22.5 km/h 98 % 0.0 in /  0 mm
19:21 1.9 °F /  -16.7 °C 1.7 °F /  -16.8 °C 1022.9 in /  34635.4 hPa East 9.0 mph /  14.5 km/h 13.0 mph /  20.9 km/h 98 % 0.0 in /  0 mm
19:26 1.9 °F /  -16.7 °C 1.6 °F /  -16.9 °C 1022.9 in /  34635.4 hPa East 6.4 mph /  10.3 km/h 13.0 mph /  20.9 km/h 98 % 0.0 in /  0 mm
19:31 1.9 °F /  -16.7 °C 1.6 °F /  -16.9 °C 1022.9 in /  34635.4 hPa East 9.0 mph /  14.5 km/h 10.5 mph /  16.9 km/h 98 % 0.0 in /  0 mm
19:36 1.9 °F /  -16.7 °C 1.6 °F /  -16.9 °C 1022.9 in /  34635.4 hPa East 6.4 mph /  10.3 km/h 10.5 mph /  16.9 km/h 98 % 0.0 in /  0 mm
19:41 1.9 °F /  -16.7 °C 1.6 °F /  -16.9 °C 1022.9 in /  34635.4 hPa East 8.7 mph /  14 km/h 10.5 mph /  16.9 km/h 98 % 0.0 in /  0 mm
19:46 1.9 °F /  -16.7 °C 1.6 °F /  -16.9 °C 1022.9 in /  34635.4 hPa ENE 9.3 mph /  15 km/h 10.5 mph /  16.9 km/h 98 % 0.0 in /  0 mm
19:51 1.9 °F /  -16.7 °C 1.6 °F /  -16.9 °C 1022.9 in /  34635.4 hPa East 4.3 mph /  6.9 km/h 10.5 mph /  16.9 km/h 98 % 0.0 in /  0 mm
19:56 1.9 °F /  -16.7 °C 1.6 °F /  -16.9 °C 1022.9 in /  34635.4 hPa East 6.4 mph /  10.3 km/h 9.3 mph /  15 km/h 98 % 0.0 in /  0 mm
20:01 1.8 °F /  -16.8 °C 1.5 °F /  -16.9 °C 1022.9 in /  34635.4 hPa East 8.7 mph /  14 km/h 11.6 mph /  18.7 km/h 98 % 0.0 in /  0 mm
20:06 1.8 °F /  -16.8 °C 1.5 °F /  -16.9 °C 1022.9 in /  34635.4 hPa ENE 6.9 mph /  11.1 km/h 12.2 mph /  19.6 km/h 98 % 0.0 in /  0 mm
20:11 1.8 °F /  -16.8 °C 1.5 °F /  -16.9 °C 1022.9 in /  34635.4 hPa ESE 5.0 mph /  8 km/h 12.2 mph /  19.6 km/h 98 % 0.0 in /  0 mm
20:16 1.8 °F /  -16.8 °C 1.5 °F /  -16.9 °C 1022.9 in /  34635.4 hPa ESE 7.9 mph /  12.7 km/h 9.7 mph /  15.6 km/h 98 % 0.0 in /  0 mm
20:21 1.8 °F /  -16.8 °C 1.5 °F /  -16.9 °C 1022.9 in /  34635.4 hPa ENE 4.7 mph /  7.6 km/h 9.3 mph /  15 km/h 98 % 0.0 in /  0 mm
20:26 1.8 °F /  -16.8 °C 1.5 °F /  -16.9 °C 1022.9 in /  34635.4 hPa ENE 6.4 mph /  10.3 km/h 9.7 mph /  15.6 km/h 98 % 0.0 in /  0 mm
20:31 1.9 °F /  -16.7 °C 1.6 °F /  -16.9 °C 1022.9 in /  34635.4 hPa East 6.4 mph /  10.3 km/h 9.7 mph /  15.6 km/h 98 % 0.0 in /  0 mm
20:35 1.9 °F /  -16.7 °C 1.6 °F /  -16.9 °C 1022.9 in /  34635.4 hPa NE 10.1 mph /  16.3 km/h 10.5 mph /  16.9 km/h 98 % 0.0 in /  0 mm
20:41 1.8 °F /  -16.8 °C 1.5 °F /  -16.9 °C 1022.9 in /  34635.4 hPa ENE 10.1 mph /  16.3 km/h 12.6 mph /  20.3 km/h 98 % 0.0 in /  0 mm
20:46 1.8 °F /  -16.8 °C 1.5 °F /  -16.9 °C 1022.9 in /  34635.4 hPa NNE 10.5 mph /  16.9 km/h 16.6 mph /  26.7 km/h 98 % 0.0 in /  0 mm
20:51 1.9 °F /  -16.7 °C 1.6 °F /  -16.9 °C 1022.9 in /  34635.4 hPa East 7.9 mph /  12.7 km/h 16.6 mph /  26.7 km/h 98 % 0.0 in /  0 mm
20:55 1.9 °F /  -16.7 °C 1.6 °F /  -16.9 °C 1022.9 in /  34635.4 hPa ENE 10.1 mph /  16.3 km/h 13.0 mph /  20.9 km/h 98 % 0.0 in /  0 mm
21:00 1.9 °F /  -16.7 °C 1.6 °F /  -16.9 °C 1022.9 in /  34635.4 hPa ENE 9.3 mph /  15 km/h 14.0 mph /  22.5 km/h 98 % 0.0 in /  0 mm
21:05 1.9 °F /  -16.7 °C 1.6 °F /  -16.9 °C 1022.9 in /  34635.4 hPa ENE 4.7 mph /  7.6 km/h 14.0 mph /  22.5 km/h 98 % 0.0 in /  0 mm
21:11 1.9 °F /  -16.7 °C 1.6 °F /  -16.9 °C 1022.9 in /  34635.4 hPa ENE 6.4 mph /  10.3 km/h 10.5 mph /  16.9 km/h 98 % 0.0 in /  0 mm
21:15 1.9 °F /  -16.7 °C 1.6 °F /  -16.9 °C 1022.9 in /  34635.4 hPa NE 9.0 mph /  14.5 km/h 13.7 mph /  22 km/h 98 % 0.0 in /  0 mm
21:21 1.9 °F /  -16.7 °C 1.6 °F /  -16.9 °C 1022.9 in /  34635.4 hPa NE 8.7 mph /  14 km/h 13.7 mph /  22 km/h 98 % 0.0 in /  0 mm
21:25 1.9 °F /  -16.7 °C 1.6 °F /  -16.9 °C 1021.9 in /  34601.5 hPa ENE 11.9 mph /  19.2 km/h 14.0 mph /  22.5 km/h 98 % 0.0 in /  0 mm
21:30 1.9 °F /  -16.7 °C 1.6 °F /  -16.9 °C 1021.9 in /  34601.5 hPa ENE 4.7 mph /  7.6 km/h 14.0 mph /  22.5 km/h 98 % 0.0 in /  0 mm
21:35 1.9 °F /  -16.7 °C 1.6 °F /  -16.9 °C 1021.9 in /  34601.5 hPa ENE 5.0 mph /  8 km/h 11.9 mph /  19.2 km/h 98 % 0.0 in /  0 mm
21:40 1.9 °F /  -16.7 °C 1.6 °F /  -16.9 °C 1022.9 in /  34635.4 hPa NE 10.1 mph /  16.3 km/h 11.1 mph /  17.9 km/h 98 % 0.0 in /  0 mm
21:45 1.9 °F /  -16.7 °C 1.4 °F /  -17 °C 1022.9 in /  34635.4 hPa ENE 7.9 mph /  12.7 km/h 13.7 mph /  22 km/h 97 % 0.0 in /  0 mm
21:50 1.9 °F /  -16.7 °C 1.4 °F /  -17 °C 1022.9 in /  34635.4 hPa ENE 8.7 mph /  14 km/h 13.7 mph /  22 km/h 97 % 0.0 in /  0 mm
21:55 1.9 °F /  -16.7 °C 1.4 °F /  -17 °C 1022.9 in /  34635.4 hPa NE 9.7 mph /  15.6 km/h 13.0 mph /  20.9 km/h 97 % 0.0 in /  0 mm
22:00 1.8 °F /  -16.8 °C 1.3 °F /  -17.1 °C 1022.9 in /  34635.4 hPa NE 10.5 mph /  16.9 km/h 13.0 mph /  20.9 km/h 97 % 0.0 in /  0 mm
22:05 1.9 °F /  -16.7 °C 1.4 °F /  -17 °C 1022.9 in /  34635.4 hPa ENE 9.7 mph /  15.6 km/h 12.6 mph /  20.3 km/h 97 % 0.0 in /  0 mm
22:10 1.9 °F /  -16.7 °C 1.4 °F /  -17 °C 1022.9 in /  34635.4 hPa NE 9.3 mph /  15 km/h 10.5 mph /  16.9 km/h 97 % 0.0 in /  0 mm
22:15 1.9 °F /  -16.7 °C 1.4 °F /  -17 °C 1022.9 in /  34635.4 hPa NE 9.0 mph /  14.5 km/h 10.5 mph /  16.9 km/h 97 % 0.0 in /  0 mm
22:20 1.9 °F /  -16.7 °C 1.4 °F /  -17 °C 1022.9 in /  34635.4 hPa ENE 6.9 mph /  11.1 km/h 10.5 mph /  16.9 km/h 97 % 0.0 in /  0 mm
22:25 1.9 °F /  -16.7 °C 1.4 °F /  -17 °C 1022.9 in /  34635.4 hPa East 7.9 mph /  12.7 km/h 9.7 mph /  15.6 km/h 97 % 0.0 in /  0 mm
22:27 1.9 °F /  -16.7 °C 1.4 °F /  -17 °C 1022.9 in /  34635.4 hPa East 7.6 mph /  12.2 km/h 9.7 mph /  15.6 km/h 97 % 0.0 in /  0 mm
22:32 1.9 °F /  -16.7 °C 1.4 °F /  -17 °C 1022.9 in /  34635.4 hPa ENE 6.9 mph /  11.1 km/h 10.1 mph /  16.3 km/h 97 % 0.0 in /  0 mm
22:37 1.9 °F /  -16.7 °C 1.4 °F /  -17 °C 1022.9 in /  34635.4 hPa ENE 10.1 mph /  16.3 km/h 10.1 mph /  16.3 km/h 97 % 0.0 in /  0 mm
22:42 1.9 °F /  -16.7 °C 1.4 °F /  -17 °C 1022.9 in /  34635.4 hPa ENE 6.1 mph /  9.8 km/h 13.7 mph /  22 km/h 97 % 0.0 in /  0 mm
22:47 1.9 °F /  -16.7 °C 1.4 °F /  -17 °C 1022.9 in /  34635.4 hPa ENE 6.4 mph /  10.3 km/h 13.7 mph /  22 km/h 97 % 0.0 in /  0 mm
22:52 1.8 °F /  -16.8 °C 1.3 °F /  -17.1 °C 1022.9 in /  34635.4 hPa ENE 5.5 mph /  8.9 km/h 9.7 mph /  15.6 km/h 97 % 0.0 in /  0 mm
22:57 1.7 °F /  -16.8 °C 1.2 °F /  -17.1 °C 1022.9 in /  34635.4 hPa ENE 10.5 mph /  16.9 km/h 14.0 mph /  22.5 km/h 97 % 0.0 in /  0 mm
23:02 1.7 °F /  -16.8 °C 1.2 °F /  -17.1 °C 1022.9 in /  34635.4 hPa East 10.1 mph /  16.3 km/h 14.0 mph /  22.5 km/h 97 % 0.0 in /  0 mm
23:07 1.7 °F /  -16.8 °C 1.2 °F /  -17.1 °C 1022.9 in /  34635.4 hPa NE 6.1 mph /  9.8 km/h 12.2 mph /  19.6 km/h 97 % 0.0 in /  0 mm
23:12 1.6 °F /  -16.9 °C 1.2 °F /  -17.1 °C 1022.9 in /  34635.4 hPa ENE 8.7 mph /  14 km/h 13.0 mph /  20.9 km/h 97 % 0.0 in /  0 mm
23:17 1.4 °F /  -17 °C 0.9 °F /  -17.3 °C 1022.9 in /  34635.4 hPa ENE 8.7 mph /  14 km/h 13.0 mph /  20.9 km/h 97 % 0.0 in /  0 mm
23:22 1.4 °F /  -17 °C 0.8 °F /  -17.3 °C 1022.9 in /  34635.4 hPa ENE 5.5 mph /  8.9 km/h 10.5 mph /  16.9 km/h 96 % 0.0 in /  0 mm
23:27 1.3 °F /  -17.1 °C 0.7 °F /  -17.4 °C 1021.9 in /  34601.5 hPa ENE 9.7 mph /  15.6 km/h 10.5 mph /  16.9 km/h 96 % 0.0 in /  0 mm
23:32 1.2 °F /  -17.1 °C 0.6 °F /  -17.4 °C 1021.9 in /  34601.5 hPa NE 9.7 mph /  15.6 km/h 10.5 mph /  16.9 km/h 96 % 0.0 in /  0 mm
23:37 1.1 °F /  -17.2 °C 0.7 °F /  -17.4 °C 1021.9 in /  34601.5 hPa NE 8.7 mph /  14 km/h 12.2 mph /  19.6 km/h 97 % 0.0 in /  0 mm
23:42 1.1 °F /  -17.2 °C 0.7 °F /  -17.4 °C 1021.9 in /  34601.5 hPa NE 5.5 mph /  8.9 km/h 12.6 mph /  20.3 km/h 97 % 0.0 in /  0 mm
23:47 1.0 °F /  -17.2 °C 0.6 °F /  -17.4 °C 1021.9 in /  34601.5 hPa North 7.2 mph /  11.6 km/h 12.6 mph /  20.3 km/h 97 % 0.0 in /  0 mm
23:55 0.9 °F /  -17.3 °C 0.4 °F /  -17.6 °C 1022.9 in /  34635.4 hPa NNE 1.4 mph /  2.3 km/h 10.5 mph /  16.9 km/h 97 % 0.0 in /  0 mm
Le Gheer Warneton
Courtoisie de Weather Underground - 2.25 mb

Mise a jour : 17/02/2018 20:16:12
Généré par Cumulus 1.9.4 (1099)